Rzhev, Russia
Current Conditions -  °F | °C
As of 10:00 AM on Friday 28 Nov 2014 (Local Time) from UUBW Reporting Station
Broken Clouds Broken Clouds  
Wind Chill:   Ceiling: 10000
Heat Index: 14°   Visibility: 5mi
Dew Point: 10°   Wind: 9mph
Humidity: 86%   Direction: 90°E
Pressure: 30.59"   Gusts: NA
Location:  56.26°N, 34.33°E
Report Text: UUBW 280700Z 09004MPS 8000 BKN100 M10/M12 Q1036 NOSIG RMKSC050
Loading
Personal Weather Stations






























Interactive Weather Map New forecast layout! Learn more

10-Day Weather Forecast

Advertisements
Track Severe Weather on mobile